Time;durP1;ratioP1;P1;durP2;ratioP2;P2;SDS_P1;SDS_P2;PMS_P1;PMS_P2;Temp;Humidity;BMP_temperature;BMP_pressure;BME280_temperature;BME280_humidity;BME280_pressure;Samples;Min_cycle;Max_cycle;Signal;HPM_P1;HPM_P2
2022/07/01 00:02:04;;;;;;;2.97;2.60;;;;;;;16.25;58.40;101073.97;5019122;28;20049;-78
2022/07/01 00:04:29;;;;;;;4.72;2.38;;;;;;;16.27;58.50;101080.00;5001521;28;20084;-77
2022/07/01 00:07:16;;;;;;;6.57;2.28;;;;;;;16.36;58.41;101071.53;5002502;28;20042;-78
2022/07/01 00:09:41;;;;;;;4.45;2.78;;;;;;;16.16;58.79;101070.09;5007278;28;20038;-77
2022/07/01 00:12:07;;;;;;;8.40;3.80;;;;;;;16.24;58.64;101072.25;5002389;28;20053;-76
2022/07/01 00:14:33;;;;;;;9.98;3.78;;;;;;;16.41;58.29;101074.72;5001818;28;20042;-80
2022/07/01 00:16:59;;;;;;;6.35;3.47;;;;;;;16.08;59.19;101066.22;4999764;28;20023;-76
2022/07/01 00:19:24;;;;;;;7.57;4.50;;;;;;;16.08;59.29;101071.50;5004805;28;20041;-77
2022/07/01 00:21:50;;;;;;;12.57;4.43;;;;;;;15.47;61.90;101074.16;4989409;28;20084;-78
2022/07/01 00:24:16;;;;;;;14.55;4.32;;;;;;;15.49;61.95;101074.91;4996236;28;20630;-76
2022/07/01 00:26:42;;;;;;;14.38;4.07;;;;;;;15.70;60.92;101070.16;4990115;28;20034;-78
2022/07/01 00:29:08;;;;;;;11.18;3.17;;;;;;;15.95;60.35;101064.31;5001700;28;20503;-77
2022/07/01 00:31:33;;;;;;;14.02;3.75;;;;;;;15.83;60.70;101078.22;5007394;28;20061;-78
2022/07/01 00:33:59;;;;;;;6.15;2.60;;;;;;;15.48;61.16;101094.31;4993336;28;20185;-76
2022/07/01 00:36:24;;;;;;;8.45;2.10;;;;;;;15.63;60.92;101097.81;5020271;28;20048;-78
2022/07/01 00:38:50;;;;;;;14.95;2.85;;;;;;;15.42;61.53;101094.63;5007515;28;20066;-78
2022/07/01 00:41:21;;;;;;;10.38;1.85;;;;;;;15.91;60.02;101106.75;5007565;28;20049;-78
2022/07/01 00:43:48;;;;;;;14.75;2.70;;;;;;;15.46;60.66;101101.44;5003023;28;20041;-76
2022/07/01 00:46:13;;;;;;;21.90;2.60;;;;;;;15.65;60.18;101110.91;5005640;28;20040;-74
2022/07/01 00:48:39;;;;;;;21.85;2.67;;;;;;;15.57;59.82;101113.97;4989078;28;20050;-76
2022/07/01 00:51:06;;;;;;;14.57;3.03;;;;;;;15.07;61.28;101121.13;5005153;28;20040;-77
2022/07/01 00:53:33;;;;;;;26.42;2.92;;;;;;;15.23;60.36;101126.41;5006321;28;20089;-77
2022/07/01 00:55:59;;;;;;;29.20;4.45;;;;;;;14.80;61.36;101126.13;5009031;28;20034;-77
2022/07/01 00:58:30;;;;;;;13.80;2.38;;;;;;;14.79;61.26;101128.81;4991867;28;20037;-79
2022/07/01 01:00:58;;;;;;;13.82;2.35;;;;;;;14.61;61.05;101125.38;5020257;28;20100;-76
2022/07/01 01:03:25;;;;;;;17.77;3.25;;;;;;;14.74;60.54;101118.53;5019611;28;20046;-77
2022/07/01 01:05:54;;;;;;;15.50;2.47;;;;;;;14.25;61.45;101127.19;4990448;28;20041;-76
2022/07/01 01:08:20;;;;;;;11.45;2.03;;;;;;;14.59;60.14;101125.50;5002845;28;20045;-76
2022/07/01 01:10:47;;;;;;;16.50;3.22;;;;;;;14.00;62.04;101124.97;5003538;28;20068;-76
2022/07/01 01:13:12;;;;;;;18.95;2.40;;;;;;;14.42;60.26;101118.47;4985301;28;20042;-75
2022/07/01 01:15:38;;;;;;;15.80;2.20;;;;;;;14.39;59.98;101133.53;4989848;28;20083;-80
2022/07/01 01:18:04;;;;;;;15.80;2.17;;;;;;;14.19;60.13;101139.81;5005691;28;20040;-76
2022/07/01 01:20:35;;;;;;;14.73;1.88;;;;;;;13.75;60.61;101143.75;5008276;28;20026;-76
2022/07/01 01:23:04;;;;;;;20.50;2.28;;;;;;;13.92;60.02;101141.13;5002994;28;20037;-76
2022/07/01 01:25:33;;;;;;;10.75;1.77;;;;;;;13.65;59.90;101158.25;5010799;28;20327;-77
2022/07/01 01:28:03;;;;;;;10.50;1.15;;;;;;;13.76;59.73;101166.44;5001624;28;20042;-77
2022/07/01 01:30:29;;;;;;;7.13;0.93;;;;;;;13.86;59.37;101167.72;5006307;28;20033;-78
2022/07/01 01:32:55;;;;;;;6.65;0.88;;;;;;;14.24;58.09;101164.09;5004709;28;20088;-76
2022/07/01 01:35:22;;;;;;;6.88;0.68;;;;;;;13.97;58.57;101159.31;5010683;28;20489;-78
2022/07/01 01:37:49;;;;;;;3.88;0.60;;;;;;;13.87;58.25;101158.88;4988662;28;20046;-77
2022/07/01 01:40:15;;;;;;;8.90;0.80;;;;;;;13.97;57.60;101174.22;4992297;28;20022;-78
2022/07/01 01:42:44;;;;;;;11.43;0.98;;;;;;;13.93;58.11;101174.34;5019014;28;20037;-76
2022/07/01 01:45:10;;;;;;;8.60;0.73;;;;;;;14.13;57.35;101180.41;5008159;28;20030;-76
2022/07/01 01:47:37;;;;;;;11.32;0.40;;;;;;;14.24;56.63;101187.75;5005384;28;20037;-79
2022/07/01 01:50:08;;;;;;;9.75;0.65;;;;;;;14.20;56.35;101197.56;5003046;28;20127;-79
2022/07/01 01:52:35;;;;;;;5.78;0.65;;;;;;;14.16;56.49;101201.28;5001907;28;20033;-78
2022/07/01 01:55:01;;;;;;;8.13;0.60;;;;;;;14.12;56.39;101203.22;5004102;28;20049;-77
2022/07/01 01:57:27;;;;;;;1.88;0.63;;;;;;;14.06;56.73;101206.16;5005139;28;20042;-77
2022/07/01 01:59:52;;;;;;;6.18;0.30;;;;;;;14.22;56.30;101219.38;4987836;28;20057;-78
2022/07/01 02:02:18;;;;;;;10.00;0.77;;;;;;;14.01;56.93;101223.06;5004497;28;20064;-77
2022/07/01 02:04:44;;;;;;;10.63;0.73;;;;;;;13.72;57.22;101220.94;5001005;28;20120;-76
2022/07/01 02:07:10;;;;;;;1.15;0.50;;;;;;;13.88;57.04;101223.66;5011224;28;20034;-77
2022/07/01 02:09:40;;;;;;;7.13;0.40;;;;;;;13.56;57.75;101216.44;5002751;28;20046;-77
2022/07/01 02:12:06;;;;;;;7.78;0.38;;;;;;;13.45;58.35;101220.44;5006768;28;20495;-79
2022/07/01 02:14:32;;;;;;;2.05;0.47;;;;;;;13.60;57.90;101207.53;5003070;28;20132;-78
2022/07/01 02:17:19;;;;;;;1.48;0.20;;;;;;;13.36;58.33;101210.38;4990990;28;20030;-77
2022/07/01 02:20:14;;;;;;;1.83;0.20;;;;;;;13.60;58.23;101210.16;4989871;28;20467;-77
2022/07/01 02:22:41;;;;;;;1.05;0.20;;;;;;;13.90;57.62;101215.72;4985166;28;20041;-79
2022/07/01 02:25:08;;;;;;;0.90;0.20;;;;;;;14.03;56.55;101202.81;5000670;28;20010;-79
2022/07/01 02:27:34;;;;;;;4.00;0.60;;;;;;;14.15;56.05;101197.81;4998856;28;20038;-78
2022/07/01 02:29:59;;;;;;;3.80;0.10;;;;;;;14.05;56.37;101187.81;5000573;28;20041;-79
2022/07/01 02:32:25;;;;;;;2.67;0.22;;;;;;;14.10;56.19;101185.84;5000599;28;20042;-77
2022/07/01 02:34:51;;;;;;;2.67;0.10;;;;;;;14.27;56.24;101185.81;4979766;28;20046;-78
2022/07/01 02:37:16;;;;;;;3.13;0.20;;;;;;;14.01;56.90;101178.38;5003273;28;20026;-80
2022/07/01 02:39:42;;;;;;;0.75;0.20;;;;;;;14.36;55.77;101187.97;4996218;28;20038;-76
2022/07/01 02:42:22;;;;;;;2.67;0.20;;;;;;;14.42;55.54;101196.53;4996553;28;20036;-77
2022/07/01 02:44:48;;;;;;;7.90;0.30;;;;;;;14.39;55.87;101201.88;4996588;28;20046;-76
2022/07/01 02:47:13;;;;;;;1.80;0.30;;;;;;;14.21;56.11;101199.28;4982982;28;20037;-77
2022/07/01 02:49:39;;;;;;;1.67;0.10;;;;;;;14.66;55.58;101207.56;4996673;28;20034;-77
2022/07/01 02:52:05;;;;;;;1.00;0.10;;;;;;;14.33;55.70;101201.28;4996843;28;20030;-77
2022/07/01 02:54:30;;;;;;;3.00;0.60;;;;;;;14.61;55.47;101199.03;4995655;28;20037;-80
2022/07/01 02:56:56;;;;;;;4.55;0.20;;;;;;;14.52;55.73;101203.00;4993679;28;20022;-76
2022/07/01 02:59:21;;;;;;;4.82;0.43;;;;;;;14.61;55.07;101202.50;4996485;28;20042;-78
2022/07/01 03:01:47;;;;;;;4.80;0.20;;;;;;;14.40;55.74;101203.59;5010195;28;20045;-78
2022/07/01 03:04:12;;;;;;;4.65;0.20;;;;;;;14.44;55.89;101215.72;4995456;28;20924;-76
2022/07/01 03:06:38;;;;;;;1.73;0.20;;;;;;;14.56;55.58;101222.94;4995488;28;20058;-79
2022/07/01 03:09:03;;;;;;;2.38;0.20;;;;;;;14.38;56.00;101226.50;4994694;28;20042;-79
2022/07/01 03:11:29;;;;;;;3.13;0.52;;;;;;;14.52;56.08;101224.91;4997364;28;20034;-77
2022/07/01 03:13:54;;;;;;;7.50;0.43;;;;;;;14.75;55.57;101247.38;4992571;28;20040;-78
2022/07/01 03:16:20;;;;;;;1.67;0.30;;;;;;;14.72;55.63;101246.69;4998057;28;20532;-78
2022/07/01 03:18:45;;;;;;;4.22;0.20;;;;;;;14.58;55.62;101249.19;4995663;28;20184;-77
2022/07/01 03:21:11;;;;;;;2.00;0.28;;;;;;;14.21;56.84;101240.47;4997529;28;20037;-77
2022/07/01 03:23:36;;;;;;;1.77;0.22;;;;;;;14.63;56.22;101252.44;4994807;28;20061;-79
2022/07/01 03:26:02;;;;;;;3.30;0.30;;;;;;;13.67;58.36;101245.69;4996177;28;20038;-78
2022/07/01 03:28:27;;;;;;;3.85;0.40;;;;;;;13.97;57.87;101247.81;5010197;28;20042;-80
2022/07/01 03:30:53;;;;;;;5.50;0.30;;;;;;;14.28;56.95;101241.91;4994146;28;20329;-77
2022/07/01 03:33:19;;;;;;;3.30;0.20;;;;;;;14.21;57.25;101251.88;4979699;28;20080;-77
2022/07/01 03:35:47;;;;;;;3.33;0.30;;;;;;;14.15;56.82;101252.16;4979563;28;20037;-78
2022/07/01 03:38:13;;;;;;;4.18;0.28;;;;;;;14.27;56.98;101256.78;4978249;28;20351;-78
2022/07/01 03:40:39;;;;;;;3.58;0.20;;;;;;;14.03;57.02;101258.88;4994335;28;20800;-78
2022/07/01 03:43:05;;;;;;;1.38;0.10;;;;;;;14.44;56.18;101263.03;4993357;28;20034;-78
2022/07/01 03:45:31;;;;;;;3.13;0.20;;;;;;;14.62;55.78;101275.25;4995615;28;20026;-77
2022/07/01 03:47:57;;;;;;;0.88;0.20;;;;;;;14.19;56.88;101280.00;4993674;28;20037;-78
2022/07/01 03:50:24;;;;;;;1.90;0.20;;;;;;;14.42;55.99;101281.53;4987898;28;20049;-77
2022/07/01 03:54:29;;;;;;;1.48;0.10;;;;;;;14.51;56.01;101290.72;4991113;28;20096;-78
2022/07/01 03:55:37;;;;;;;0.50;0.20;;;;;;;14.34;56.10;101287.13;4994766;28;20033;-77
2022/07/01 03:58:03;;;;;;;4.13;0.40;;;;;;;14.45;55.75;101291.03;4994603;28;20490;-79
2022/07/01 04:00:32;;;;;;;0.47;0.10;;;;;;;14.29;56.11;101286.50;5014394;28;20309;-76
2022/07/01 04:02:58;;;;;;;2.28;0.40;;;;;;;13.64;57.15;101287.88;4993840;28;20885;-79
2022/07/01 04:05:23;;;;;;;2.70;0.30;;;;;;;13.45;57.97;101299.22;4997465;28;20204;-77
2022/07/01 04:07:49;;;;;;;1.95;0.43;;;;;;;13.28;58.69;101301.72;4995056;28;20041;-79
2022/07/01 04:10:15;;;;;;;0.88;0.30;;;;;;;12.92;60.01;101309.44;4998008;28;20077;-79
2022/07/01 04:12:40;;;;;;;2.67;0.25;;;;;;;13.06;59.06;101302.66;4979880;28;20077;-80
2022/07/01 04:15:07;;;;;;;5.45;0.90;;;;;;;13.18;58.65;101308.28;4996926;28;20022;-79
2022/07/01 04:17:32;;;;;;;2.78;0.20;;;;;;;13.92;56.53;101316.34;5000399;28;20038;-78
2022/07/01 04:19:58;;;;;;;2.10;0.20;;;;;;;13.67;57.52;101319.25;4997217;28;20040;-75
2022/07/01 04:22:33;;;;;;;0.85;0.30;;;;;;;13.53;57.58;101323.31;5001343;28;20045;-79
2022/07/01 04:25:03;;;;;;;0.35;0.20;;;;;;;13.21;58.03;101342.31;4998142;28;20106;-79
2022/07/01 04:27:33;;;;;;;3.70;0.50;;;;;;;13.56;57.13;101347.75;5016098;28;20733;-78
2022/07/01 04:29:59;;;;;;;0.60;0.30;;;;;;;13.42;57.47;101343.97;4998102;28;20029;-78
2022/07/01 04:32:24;;;;;;;0.50;0.20;;;;;;;13.96;56.17;101345.94;4999178;28;20030;-80
2022/07/01 04:34:51;;;;;;;1.33;0.30;;;;;;;13.84;55.90;101342.13;4991774;28;20042;-77
2022/07/01 04:37:16;;;;;;;1.73;0.30;;;;;;;13.86;56.68;101335.03;5001372;28;20022;-78
2022/07/01 04:39:42;;;;;;;0.90;0.20;;;;;;;13.48;56.90;101341.06;4981326;28;20069;-75
2022/07/01 04:42:08;;;;;;;0.70;0.15;;;;;;;13.73;55.84;101340.84;4996316;28;20069;-78
2022/07/01 04:44:35;;;;;;;1.58;0.25;;;;;;;13.98;55.86;101359.88;5001940;28;20119;-77
2022/07/01 04:47:03;;;;;;;3.20;0.20;;;;;;;14.18;54.80;101362.41;4995909;28;20030;-77
2022/07/01 04:49:29;;;;;;;0.65;0.20;;;;;;;13.40;57.04;101368.59;4985135;28;20419;-79
2022/07/01 04:51:56;;;;;;;3.95;0.40;;;;;;;13.98;55.61;101370.38;4972604;28;20042;-77
2022/07/01 04:54:21;;;;;;;5.28;0.40;;;;;;;13.91;55.53;101372.44;5010267;28;20249;-77
2022/07/01 04:56:47;;;;;;;1.02;0.40;;;;;;;13.60;56.45;101365.09;4980529;28;20034;-75
2022/07/01 04:59:13;;;;;;;1.67;0.50;;;;;;;13.39;56.50;101373.00;4996458;28;20046;-78
2022/07/01 05:01:43;;;;;;;2.70;0.50;;;;;;;13.58;56.09;101380.06;4986740;28;20309;-78
2022/07/01 05:04:10;;;;;;;1.33;0.45;;;;;;;13.76;55.35;101381.03;4976317;28;20764;-78
2022/07/01 05:06:35;;;;;;;2.35;0.40;;;;;;;13.77;55.14;101386.22;5001096;28;20038;-76
2022/07/01 05:09:01;;;;;;;1.92;0.60;;;;;;;13.98;54.91;101394.88;4982527;28;20049;-78
2022/07/01 05:11:27;;;;;;;2.78;0.40;;;;;;;13.59;55.97;101400.19;4997342;28;20040;-78
2022/07/01 05:13:52;;;;;;;0.77;0.45;;;;;;;13.36;56.81;101394.13;4996371;28;20050;-76
2022/07/01 05:16:18;;;;;;;2.08;0.40;;;;;;;13.66;55.96;101401.59;4998646;28;20057;-78
2022/07/01 05:24:13;;;;;;;1.48;0.50;;;;;;;14.06;54.52;101415.56;5000847;28;20490;-77
2022/07/01 05:26:45;;;;;;;4.25;0.55;;;;;;;13.13;56.52;101418.72;5003644;28;20064;-77
2022/07/01 05:29:11;;;;;;;2.97;0.60;;;;;;;13.76;54.87;101441.44;4998514;28;20072;-77
2022/07/01 05:31:37;;;;;;;1.00;0.30;;;;;;;14.26;53.80;101438.31;4983557;28;20038;-80
2022/07/01 05:34:04;;;;;;;2.33;0.32;;;;;;;14.13;54.29;101444.13;5021521;28;20045;-79
2022/07/01 05:36:31;;;;;;;2.67;0.43;;;;;;;14.21;54.44;101442.91;4982925;28;20038;-78
2022/07/01 05:38:57;;;;;;;3.55;0.60;;;;;;;14.29;54.15;101444.25;5002630;28;20042;-78
2022/07/01 05:41:23;;;;;;;1.42;0.60;;;;;;;14.42;54.00;101448.97;4982991;28;20072;-78
2022/07/01 05:43:49;;;;;;;3.90;0.30;;;;;;;14.36;53.42;101445.66;4996533;28;20154;-79
2022/07/01 05:46:15;;;;;;;1.70;0.40;;;;;;;13.89;55.07;101446.06;4982418;28;20034;-77
2022/07/01 05:48:40;;;;;;;3.17;0.50;;;;;;;13.70;55.34;101450.47;4994399;28;20111;-79
2022/07/01 05:51:06;;;;;;;1.10;0.70;;;;;;;13.58;55.68;101453.63;4978951;28;20203;-78
2022/07/01 05:53:32;;;;;;;2.72;0.30;;;;;;;13.50;56.47;101448.66;4993564;28;20074;-79
2022/07/01 05:55:59;;;;;;;1.58;0.38;;;;;;;14.10;54.91;101438.16;4996497;28;20508;-76
2022/07/01 05:58:25;;;;;;;1.13;0.20;;;;;;;13.99;55.72;101435.19;4995928;28;20041;-78
2022/07/01 06:00:51;;;;;;;2.05;0.57;;;;;;;13.99;55.17;101429.91;4996645;28;20500;-77
2022/07/01 06:03:17;;;;;;;1.85;0.60;;;;;;;14.01;55.31;101433.31;4992939;28;20038;-78
2022/07/01 06:05:43;;;;;;;1.35;0.40;;;;;;;14.10;55.20;101427.66;4996872;28;20038;-79
2022/07/01 06:08:08;;;;;;;1.83;0.75;;;;;;;14.43;54.01;101424.38;5009163;28;20072;-78
2022/07/01 06:10:35;;;;;;;3.50;0.77;;;;;;;14.28;54.77;101424.16;4994895;28;20077;-77
2022/07/01 06:13:02;;;;;;;1.90;0.75;;;;;;;13.99;55.43;101428.13;4976405;28;20101;-79
2022/07/01 06:15:28;;;;;;;1.02;0.38;;;;;;;14.08;55.55;101437.38;4997155;28;20132;-79
2022/07/01 06:17:55;;;;;;;1.67;0.60;;;;;;;14.08;55.10;101432.13;4993318;28;20044;-79
2022/07/01 06:20:20;;;;;;;4.10;0.50;;;;;;;13.60;56.01;101442.13;4995839;28;20042;-80
2022/07/01 06:22:46;;;;;;;1.48;0.47;;;;;;;13.76;56.56;101434.41;5009718;28;20179;-79
2022/07/01 06:25:12;;;;;;;1.58;0.73;;;;;;;14.05;55.42;101433.09;4996262;28;20042;-79
2022/07/01 06:27:39;;;;;;;3.03;0.55;;;;;;;13.85;56.13;101439.28;4980675;28;20037;-78
2022/07/01 06:30:06;;;;;;;5.13;1.15;;;;;;;13.59;56.77;101439.56;4995509;28;20979;-77
2022/07/01 06:32:32;;;;;;;2.90;0.55;;;;;;;13.93;55.79;101437.13;4996623;28;20057;-78
2022/07/01 06:34:57;;;;;;;1.90;0.77;;;;;;;13.88;56.02;101438.28;4996720;28;20716;-78
2022/07/01 06:37:23;;;;;;;4.32;0.93;;;;;;;13.79;56.15;101434.28;4993834;28;20033;-78
2022/07/01 06:39:49;;;;;;;2.13;1.00;;;;;;;13.87;56.69;101431.31;4995434;28;20099;-75
2022/07/01 06:42:15;;;;;;;1.83;1.15;;;;;;;13.51;56.75;101437.22;4996135;28;20057;-76
2022/07/01 06:44:43;;;;;;;3.83;1.40;;;;;;;14.23;56.16;101439.31;4993822;28;20053;-76
2022/07/01 06:47:08;;;;;;;5.47;1.23;;;;;;;13.94;55.76;101444.13;4994908;28;20061;-77
2022/07/01 06:49:34;;;;;;;2.40;0.98;;;;;;;14.09;55.78;101433.81;4996551;28;20038;-77
2022/07/01 06:52:00;;;;;;;5.45;1.30;;;;;;;14.51;54.64;101440.66;4995347;28;20492;-77
2022/07/01 06:54:28;;;;;;;2.88;0.82;;;;;;;14.49;55.43;101439.88;5008420;28;20662;-77
2022/07/01 06:56:54;;;;;;;5.63;1.67;;;;;;;14.41;54.14;101436.75;4993817;28;20431;-77
2022/07/01 06:59:19;;;;;;;4.25;1.13;;;;;;;14.54;54.28;101438.75;4989700;28;20478;-77
2022/07/01 07:01:45;;;;;;;2.95;1.55;;;;;;;14.63;53.99;101440.03;4996676;28;20041;-77
2022/07/01 07:04:10;;;;;;;1.90;1.27;;;;;;;14.65;53.33;101430.31;4990120;28;20048;-75
2022/07/01 07:06:36;;;;;;;2.45;1.20;;;;;;;14.80;52.04;101449.78;4985100;28;20056;-78
2022/07/01 07:09:02;;;;;;;9.13;4.80;;;;;;;15.65;52.02;101442.91;4994679;28;20053;-75
2022/07/01 07:11:27;;;;;;;2.90;0.90;;;;;;;15.37;52.04;101439.03;4996588;28;20030;-77
2022/07/01 07:13:53;;;;;;;5.20;0.70;;;;;;;14.93;52.33;101428.97;4992818;28;20105;-78
2022/07/01 07:16:21;;;;;;;7.20;1.13;;;;;;;15.01;53.27;101432.06;4997844;28;20113;-76
2022/07/01 07:18:47;;;;;;;3.25;1.00;;;;;;;15.16;51.67;101444.44;5009202;28;20084;-77
2022/07/01 07:21:13;;;;;;;3.05;1.00;;;;;;;14.80;52.31;101441.88;4996862;28;20033;-76
2022/07/01 07:23:38;;;;;;;2.40;0.95;;;;;;;14.87;51.99;101439.78;4997456;28;20459;-78
2022/07/01 07:26:04;;;;;;;2.42;0.90;;;;;;;15.38;50.95;101432.88;4998717;28;20046;-77
2022/07/01 07:28:29;;;;;;;3.30;0.73;;;;;;;14.71;51.42;101440.53;4997150;28;20049;-77
2022/07/01 07:30:55;;;;;;;2.53;1.00;;;;;;;14.68;51.65;101456.50;4999707;28;20133;-78
2022/07/01 07:33:21;;;;;;;2.13;0.70;;;;;;;14.92;51.65;101459.69;5000060;28;20064;-77
2022/07/01 07:35:47;;;;;;;1.75;0.40;;;;;;;14.72;52.15;101465.94;4998046;28;20037;-78
2022/07/01 07:38:12;;;;;;;2.65;0.65;;;;;;;14.41;52.50;101463.91;4996175;28;20500;-78
2022/07/01 07:40:38;;;;;;;5.57;1.00;;;;;;;13.99;54.24;101469.34;5000418;28;20126;-80
2022/07/01 07:43:05;;;;;;;2.67;0.65;;;;;;;14.74;52.58;101469.31;5001252;28;20128;-78
2022/07/01 07:45:31;;;;;;;4.05;0.80;;;;;;;14.55;52.22;101482.53;4990252;28;20053;-78
2022/07/01 07:47:56;;;;;;;2.70;0.60;;;;;;;15.07;51.60;101479.13;5000841;28;22201;-78
2022/07/01 07:50:23;;;;;;;5.00;1.08;;;;;;;14.87;51.63;101472.22;5003226;28;20064;-78
2022/07/01 07:52:48;;;;;;;2.95;1.15;;;;;;;14.48;51.92;101475.00;4995319;28;20099;-78
2022/07/01 07:55:14;;;;;;;2.45;1.20;;;;;;;14.95;50.83;101485.03;4980845;28;20710;-79
2022/07/01 07:57:40;;;;;;;2.75;0.65;;;;;;;14.91;51.51;101489.56;4978817;28;20555;-78
2022/07/01 08:00:08;;;;;;;1.80;0.77;;;;;;;15.15;50.93;101495.41;4999341;28;20298;-77
2022/07/01 08:02:41;;;;;;;3.58;1.02;;;;;;;14.87;51.31;101506.44;5010406;28;20069;-79
2022/07/01 08:05:08;;;;;;;6.07;1.10;;;;;;;14.75;51.93;101505.25;5013249;28;20049;-79
2022/07/01 08:07:39;;;;;;;3.17;1.27;;;;;;;14.62;51.78;101508.53;5011424;28;20034;-78
2022/07/01 08:10:06;;;;;;;6.82;2.17;;;;;;;14.92;51.56;101509.69;4990732;28;20100;-79
2022/07/01 08:12:32;;;;;;;4.47;1.55;;;;;;;15.68;49.76;101511.25;4992511;28;20037;-76
2022/07/01 08:14:59;;;;;;;3.85;1.30;;;;;;;16.08;49.13;101504.75;4992413;28;20411;-79
2022/07/01 08:17:24;;;;;;;3.42;1.10;;;;;;;16.53;48.04;101505.84;4993666;28;20042;-79
2022/07/01 08:19:50;;;;;;;5.30;1.92;;;;;;;15.47;48.59;101508.78;4991364;28;20122;-77
2022/07/01 08:22:16;;;;;;;4.18;1.60;;;;;;;15.52;48.63;101513.81;4991712;28;20089;-75
2022/07/01 08:24:41;;;;;;;5.25;1.42;;;;;;;15.70;48.46;101531.31;4975367;28;20030;-79
2022/07/01 08:27:07;;;;;;;3.88;1.63;;;;;;;15.84;48.17;101533.25;5005677;28;20428;-79
2022/07/01 08:29:33;;;;;;;5.75;2.10;;;;;;;16.11;47.60;101523.06;4992482;28;20037;-77
2022/07/01 08:31:58;;;;;;;6.25;2.20;;;;;;;16.30;48.25;101532.63;4993658;28;20641;-78
2022/07/01 08:34:23;;;;;;;3.22;1.85;;;;;;;16.10;46.88;101529.25;4989340;28;20045;-77
2022/07/01 08:36:49;;;;;;;6.18;1.92;;;;;;;15.90;48.16;101538.19;4988475;28;20029;-78
2022/07/01 08:39:15;;;;;;;2.13;1.60;;;;;;;16.27;46.32;101533.66;4978609;28;20038;-78
2022/07/01 08:41:42;;;;;;;7.05;2.58;;;;;;;16.27;46.90;101531.00;4978801;28;20049;-75
2022/07/01 08:44:08;;;;;;;8.30;2.53;;;;;;;16.36;46.88;101537.59;4992582;28;20063;-80
2022/07/01 08:46:34;;;;;;;7.63;2.35;;;;;;;16.99;45.95;101539.41;4995945;28;20041;-78
2022/07/01 08:49:01;;;;;;;6.60;2.33;;;;;;;16.71;45.34;101535.66;4992560;28;20061;-78
2022/07/01 08:51:26;;;;;;;5.80;1.77;;;;;;;16.88;44.84;101547.06;4993282;28;20034;-79
2022/07/01 08:53:52;;;;;;;5.70;2.03;;;;;;;17.04;44.88;101545.25;4990862;28;20052;-76
2022/07/01 08:59:01;;;;;;;4.20;1.88;;;;;;;16.68;44.54;101551.63;5007071;28;20037;-77
2022/07/01 09:01:27;;;;;;;5.63;2.25;;;;;;;16.77;44.90;101551.16;5005894;28;20038;-80
2022/07/01 09:04:12;;;;;;;4.57;2.58;;;;;;;16.45;45.34;101554.69;4990758;28;20076;-79
2022/07/01 09:06:37;;;;;;;2.95;1.95;;;;;;;17.01;44.85;101556.00;4994692;28;20065;-79
2022/07/01 09:09:20;;;;;;;4.47;2.22;;;;;;;17.52;44.37;101559.25;4991157;28;20746;-78
2022/07/01 09:11:53;;;;;;;2.90;2.58;;;;;;;17.26;43.63;101547.53;5013293;28;20056;-77
2022/07/01 09:14:24;;;;;;;3.60;2.05;;;;;;;17.33;42.52;101545.38;4983080;28;20046;-77
2022/07/01 09:16:55;;;;;;;7.35;2.30;;;;;;;17.51;41.78;101546.97;4994629;28;20030;-79
2022/07/01 09:19:22;;;;;;;4.65;1.83;;;;;;;17.45;43.03;101557.91;4984107;28;20057;-80
2022/07/01 09:22:00;;;;;;;9.38;2.58;;;;;;;17.74;42.51;101555.34;4981989;28;20053;-80
2022/07/01 09:24:33;;;;;;;5.40;3.25;;;;;;;17.55;42.76;101561.72;4996201;28;20051;-79
2022/07/01 09:27:00;;;;;;;6.78;2.53;;;;;;;17.57;42.77;101565.13;4980959;28;20049;-77
2022/07/01 09:29:28;;;;;;;3.47;2.60;;;;;;;17.86;41.82;101555.44;4997606;28;20068;-79
2022/07/01 09:31:54;;;;;;;6.75;2.88;;;;;;;18.19;42.13;101554.38;5010898;28;20120;-78
2022/07/01 09:34:20;;;;;;;5.60;2.05;;;;;;;16.62;42.42;101573.09;4996930;28;20200;-82
2022/07/01 09:36:55;;;;;;;5.43;1.73;;;;;;;16.91;41.72;101553.06;5011516;28;20023;-79
2022/07/01 09:39:21;;;;;;;7.00;1.75;;;;;;;16.95;42.01;101559.84;4998195;28;20057;-79
2022/07/01 09:41:47;;;;;;;4.53;1.65;;;;;;;17.83;41.04;101562.75;4997595;28;20034;-80
2022/07/01 09:44:13;;;;;;;9.10;2.05;;;;;;;17.61;42.08;101569.28;4996273;28;20489;-79
2022/07/01 09:46:51;;;;;;;5.22;1.90;;;;;;;16.99;42.51;101568.44;5001754;28;20041;-78
2022/07/01 09:49:17;;;;;;;5.03;1.90;;;;;;;17.20;42.63;101580.44;5000111;28;20042;-81
2022/07/01 09:51:43;;;;;;;4.22;1.83;;;;;;;16.66;42.92;101585.19;5001728;28;20285;-78
2022/07/01 09:54:11;;;;;;;4.30;1.75;;;;;;;17.21;41.25;101591.84;5001577;28;20038;-76
2022/07/01 09:56:37;;;;;;;2.75;1.95;;;;;;;17.45;40.72;101584.31;5002192;28;20121;-77
2022/07/01 09:59:03;;;;;;;4.45;2.05;;;;;;;17.11;40.80;101586.22;4998571;28;20113;-75
2022/07/01 10:01:31;;;;;;;4.28;1.60;;;;;;;17.16;41.03;101583.34;4999311;28;20038;-79
2022/07/01 10:03:57;;;;;;;4.38;1.50;;;;;;;17.63;39.71;101577.97;4994203;28;20049;-78
2022/07/01 10:06:46;;;;;;;3.20;1.30;;;;;;;17.22;39.93;101575.94;5004870;28;20034;-79
2022/07/01 10:09:20;;;;;;;3.97;1.77;;;;;;;17.60;40.12;101577.31;5015149;28;20085;-79
2022/07/01 10:12:20;;;;;;;9.10;1.60;;;;;;;17.72;39.99;101587.16;4985228;28;20050;-80
2022/07/01 10:14:48;;;;;;;3.67;2.17;;;;;;;17.40;40.78;101596.94;4993182;28;20487;-80
2022/07/01 10:17:41;;;;;;;4.65;1.77;;;;;;;17.68;40.65;101605.94;4995222;28;20120;-79
2022/07/01 10:20:13;;;;;;;3.70;1.65;;;;;;;18.11;40.31;101603.38;5007750;28;20042;-81
2022/07/01 10:22:40;;;;;;;5.88;3.53;;;;;;;18.00;41.06;101609.31;4995863;28;20038;-77
2022/07/01 10:25:37;;;;;;;7.10;4.00;;;;;;;18.32;41.14;101617.13;4984714;28;20046;-77
2022/07/01 10:28:16;;;;;;;6.15;5.32;;;;;;;18.59;40.90;101615.44;4986950;28;20041;-78
2022/07/01 10:31:04;;;;;;;6.05;4.55;;;;;;;18.44;39.98;101617.22;4983538;28;20085;-78
2022/07/01 10:33:55;;;;;;;5.28;4.07;;;;;;;17.88;40.36;101621.47;4998276;28;20053;-79
2022/07/01 10:36:32;;;;;;;6.07;3.65;;;;;;;17.36;40.53;101616.56;5001783;28;20037;-78
2022/07/01 10:39:13;;;;;;;8.07;4.28;;;;;;;17.47;41.11;101614.16;4981052;28;20052;-76
2022/07/01 10:41:58;;;;;;;;;;;;;;;17.05;42.40;101601.59;5009949;28;20754;-76
2022/07/01 10:44:26;;;;;;;6.45;3.85;;;;;;;18.10;40.64;101606.97;5003882;28;19986;-77
2022/07/01 10:46:57;;;;;;;10.55;4.00;;;;;;;18.08;39.88;101615.00;5004111;28;20037;-78
2022/07/01 10:49:35;;;;;;;8.20;4.18;;;;;;;18.29;39.78;101612.88;4984636;28;20400;-77
2022/07/01 10:52:05;;;;;;;9.18;4.35;;;;;;;18.82;38.47;101608.66;4983783;28;20104;-76
2022/07/01 10:54:36;;;;;;;6.95;4.13;;;;;;;19.61;37.82;101609.78;4982826;28;20042;-77
2022/07/01 10:57:22;;;;;;;4.47;3.60;;;;;;;19.70;35.28;101603.00;5018133;28;20046;-77
2022/07/01 10:59:52;;;;;;;5.00;3.35;;;;;;;18.57;38.61;101608.53;5016300;28;20390;-79
2022/07/01 11:02:29;;;;;;;6.13;3.72;;;;;;;18.39;38.63;101627.25;4999752;28;20428;-78
2022/07/01 11:04:58;;;;;;;7.47;3.88;;;;;;;19.42;37.43;101614.59;5000602;28;20053;-77
2022/07/01 11:07:25;;;;;;;5.88;3.67;;;;;;;19.43;37.08;101608.31;5002240;28;20449;-77
2022/07/01 11:09:51;;;;;;;6.43;2.80;;;;;;;19.23;36.91;101605.19;4997868;28;20088;-79
2022/07/01 11:12:17;;;;;;;4.63;2.63;;;;;;;19.63;36.17;101599.91;4999257;28;20061;-78
2022/07/01 11:14:43;;;;;;;3.92;3.53;;;;;;;19.78;36.09;101599.84;4999327;28;20037;-77
2022/07/01 11:17:09;;;;;;;5.32;3.53;;;;;;;20.08;36.79;101603.06;4999324;28;20040;-77
2022/07/01 11:19:35;;;;;;;8.40;3.47;;;;;;;19.47;36.78;101602.72;4999047;28;20045;-76
2022/07/01 11:22:02;;;;;;;6.32;2.70;;;;;;;19.57;36.21;101600.34;5012655;28;20145;-77
2022/07/01 11:24:28;;;;;;;4.28;2.03;;;;;;;20.01;35.09;101595.63;4985077;28;20120;-76
2022/07/01 11:27:21;;;;;;;6.28;3.45;;;;;;;19.36;35.42;101597.28;4995282;28;20385;-80
2022/07/01 11:29:52;;;;;;;3.60;2.50;;;;;;;20.08;34.70;101597.75;4994940;28;20056;-79
2022/07/01 11:32:36;;;;;;;4.57;2.22;;;;;;;19.42;35.04;101588.06;5013901;28;20037;-77
2022/07/01 11:35:03;;;;;;;5.25;2.50;;;;;;;19.03;35.74;101597.66;4982636;28;20046;-76
2022/07/01 11:40:17;;;;;;;3.17;2.88;;;;;;;19.26;36.22;101578.50;5000887;28;20117;-78